createdAt,value
2018-09-14T00:00:56.897Z,10.80
2018-09-14T00:01:56.776Z,11.00
2018-09-14T00:02:56.680Z,11.30
2018-09-14T00:03:56.530Z,10.30
2018-09-14T00:04:56.407Z,10.00
2018-09-14T00:05:56.300Z,10.60
2018-09-14T00:06:56.160Z,10.30
2018-09-14T00:07:56.067Z,11.00
2018-09-14T00:08:55.914Z,10.60
2018-09-14T00:09:55.792Z,10.10
2018-09-14T00:10:55.670Z,10.30
2018-09-14T00:11:55.547Z,10.40
2018-09-14T00:12:55.468Z,10.00
2018-09-14T00:13:55.301Z,10.10
2018-09-14T00:14:55.176Z,9.80
2018-09-14T00:15:55.080Z,9.70
2018-09-14T00:16:54.933Z,10.00
2018-09-14T00:17:54.800Z,10.00
2018-09-14T00:18:54.712Z,10.20
2018-09-14T00:19:54.553Z,9.90
2018-09-14T00:20:54.424Z,10.60
2018-09-14T00:21:54.294Z,9.00
2018-09-14T00:22:54.170Z,10.40
2018-09-14T00:23:54.073Z,9.50
2018-09-14T00:24:53.921Z,9.30
2018-09-14T00:25:53.804Z,9.00
2018-09-14T00:26:53.674Z,9.50
2018-09-14T00:27:53.542Z,9.20
2018-09-14T00:28:53.444Z,9.00
2018-09-14T00:29:53.295Z,9.40
2018-09-14T00:30:53.166Z,8.40
2018-09-14T00:31:53.040Z,9.20
2018-09-14T00:32:52.912Z,8.50
2018-09-14T00:33:52.808Z,9.70
2018-09-14T00:34:52.659Z,9.30
2018-09-14T00:35:52.534Z,9.30
2018-09-14T00:36:52.416Z,8.30
2018-09-14T00:37:52.283Z,9.20
2018-09-14T00:38:52.182Z,8.70
2018-09-14T00:39:52.030Z,8.20
2018-09-14T00:40:51.901Z,9.00
2018-09-14T00:41:51.774Z,8.70
2018-09-14T00:42:51.651Z,8.70
2018-09-14T00:43:51.571Z,8.40
2018-09-14T00:44:51.400Z,8.80
2018-09-14T00:45:51.279Z,8.90
2018-09-14T00:46:51.151Z,8.80
2018-09-14T00:47:51.014Z,8.80
2018-09-14T00:48:50.911Z,9.20
2018-09-14T00:49:50.766Z,9.20
2018-09-14T00:50:50.639Z,9.20
2018-09-14T00:51:50.515Z,8.90
2018-09-14T00:52:50.391Z,8.50
2018-09-14T00:53:50.297Z,8.70
2018-09-14T00:54:50.145Z,7.90
2018-09-14T00:55:50.023Z,9.00
2018-09-14T00:56:49.901Z,8.40
2018-09-14T00:57:49.779Z,8.60
2018-09-14T00:58:49.708Z,8.90
2018-09-14T00:59:49.536Z,8.70
2018-09-14T01:00:49.412Z,8.30
2018-09-14T01:01:49.290Z,8.80
2018-09-14T01:02:49.168Z,9.00
2018-09-14T01:03:49.082Z,8.90
2018-09-14T01:04:48.930Z,8.10
2018-09-14T01:05:48.807Z,8.10
2018-09-14T01:06:48.682Z,8.70
2018-09-14T01:07:48.563Z,8.50
2018-09-14T01:08:48.465Z,8.30
2018-09-14T01:09:48.313Z,8.40
2018-09-14T01:10:48.188Z,8.90
2018-09-14T01:11:48.067Z,8.90
2018-09-14T01:12:47.942Z,8.60
2018-09-14T01:13:47.845Z,8.30
2018-09-14T01:14:47.697Z,8.80
2018-09-14T01:15:47.572Z,8.50
2018-09-14T01:16:47.449Z,8.40
2018-09-14T01:17:47.322Z,8.10
2018-09-14T01:18:47.228Z,9.30
2018-09-14T01:19:47.077Z,8.80
2018-09-14T01:20:46.949Z,8.40
2018-09-14T01:21:46.825Z,8.20
2018-09-14T01:22:46.701Z,8.70
2018-09-14T01:23:46.579Z,8.50
2018-09-14T01:24:46.479Z,8.80
2018-09-14T01:25:46.328Z,8.80
2018-09-14T01:26:46.218Z,8.10
2018-09-14T01:27:46.084Z,8.50
2018-09-14T01:28:45.959Z,8.60
2018-09-14T01:29:45.865Z,8.40
2018-09-14T01:30:45.712Z,8.20
2018-09-14T01:31:45.583Z,8.40
2018-09-14T01:32:45.459Z,9.00
2018-09-14T01:33:45.331Z,8.10
2018-09-14T01:34:45.233Z,7.80
2018-09-14T01:35:45.088Z,8.90
2018-09-14T01:36:44.965Z,8.40
2018-09-14T01:37:44.842Z,8.60
2018-09-14T01:38:44.717Z,8.90
2018-09-14T01:39:44.620Z,8.80
2018-09-14T01:40:44.476Z,8.30
2018-09-14T01:41:44.347Z,8.80
2018-09-14T01:42:44.221Z,9.00
2018-09-14T01:43:44.097Z,8.10
2018-09-14T01:44:43.997Z,8.60
2018-09-14T01:45:43.846Z,8.80
2018-09-14T01:46:43.725Z,8.70
2018-09-14T01:47:43.614Z,8.10
2018-09-14T01:48:43.472Z,8.80
2018-09-14T01:49:43.374Z,8.70
2018-09-14T01:50:43.220Z,9.50
2018-09-14T01:51:43.101Z,8.70
2018-09-14T01:52:42.983Z,9.00
2018-09-14T01:53:42.868Z,9.50
2018-09-14T01:54:42.767Z,8.80
2018-09-14T01:55:42.626Z,9.80
2018-09-14T01:56:42.504Z,9.30
2018-09-14T01:57:42.384Z,9.20
2018-09-14T01:58:42.261Z,9.30
2018-09-14T01:59:42.191Z,9.90
2018-09-14T02:00:42.024Z,9.00
2018-09-14T02:01:41.898Z,9.00
2018-09-14T02:02:41.788Z,8.70
2018-09-14T02:03:41.661Z,9.40
2018-09-14T02:04:41.568Z,9.50
2018-09-14T02:05:41.420Z,9.20
2018-09-14T02:06:41.305Z,9.40
2018-09-14T02:07:41.186Z,9.40
2018-09-14T02:08:41.061Z,9.90
2018-09-14T02:09:40.970Z,8.90
2018-09-14T02:10:40.823Z,9.50
2018-09-14T02:11:40.705Z,9.10
2018-09-14T02:12:40.603Z,9.90
2018-09-14T02:13:40.469Z,10.10
2018-09-14T02:14:40.376Z,9.60
2018-09-14T02:15:40.226Z,10.00
2018-09-14T02:16:40.121Z,9.40
2018-09-14T02:17:39.986Z,9.70
2018-09-14T02:18:39.867Z,10.10
2018-09-14T02:19:39.791Z,10.10
2018-09-14T02:20:39.632Z,10.00
2018-09-14T02:21:39.518Z,10.30
2018-09-14T02:22:39.392Z,10.10
2018-09-14T02:23:39.274Z,9.50
2018-09-14T02:24:39.152Z,10.60
2018-09-14T02:25:39.082Z,10.40
2018-09-14T02:26:38.914Z,9.60
2018-09-14T02:27:38.802Z,10.40
2018-09-14T02:28:38.694Z,9.90
2018-09-14T02:29:38.574Z,10.10
2018-09-14T02:30:38.491Z,9.60
2018-09-14T02:31:38.342Z,9.80
2018-09-14T02:32:38.224Z,10.50
2018-09-14T02:33:38.114Z,9.80
2018-09-14T02:34:38.001Z,10.00
2018-09-14T02:35:37.911Z,10.40
2018-09-14T02:36:37.775Z,9.70
2018-09-14T02:37:37.659Z,10.20
2018-09-14T02:38:37.548Z,9.30
2018-09-14T02:39:37.441Z,9.80
2018-09-14T02:40:37.363Z,10.50
2018-09-14T02:41:37.214Z,10.20
2018-09-14T02:42:37.098Z,10.10
2018-09-14T02:43:36.986Z,9.40
2018-09-14T02:44:36.870Z,10.50
2018-09-14T02:45:36.777Z,10.00
2018-09-14T02:46:36.637Z,9.30
2018-09-14T02:47:36.520Z,9.50
2018-09-14T02:48:36.400Z,9.20
2018-09-14T02:49:36.284Z,9.30
2018-09-14T02:50:36.188Z,9.30
2018-09-14T02:51:36.062Z,9.20
2018-09-14T02:52:35.925Z,9.20
2018-09-14T02:53:35.809Z,9.30
2018-09-14T02:54:35.691Z,9.80
2018-09-14T02:55:35.593Z,9.80
2018-09-14T02:56:35.443Z,9.70
2018-09-14T02:57:35.328Z,8.80
2018-09-14T02:58:35.209Z,9.30
2018-09-14T02:59:35.095Z,9.40
2018-09-14T03:00:35.003Z,8.90
2018-09-14T03:01:34.856Z,10.00
2018-09-14T03:02:34.740Z,9.50
2018-09-14T03:03:34.630Z,9.30
2018-09-14T03:04:34.520Z,9.70
2018-09-14T03:05:34.434Z,9.40
2018-09-14T03:06:34.286Z,9.10
2018-09-14T03:07:34.167Z,9.90
2018-09-14T03:08:34.050Z,9.50
2018-09-14T03:09:33.935Z,8.70
2018-09-14T03:10:33.846Z,9.70
2018-09-14T03:11:33.705Z,8.90
2018-09-14T03:12:33.591Z,9.00
2018-09-14T03:13:33.475Z,9.40
2018-09-14T03:14:33.357Z,8.70
2018-09-14T03:15:33.271Z,9.30
2018-09-14T03:16:33.127Z,9.20
2018-09-14T03:17:33.017Z,8.60
2018-09-14T03:18:32.907Z,9.60
2018-09-14T03:19:32.809Z,8.70
2018-09-14T03:20:32.712Z,8.80
2018-09-14T03:21:32.574Z,9.20
2018-09-14T03:22:32.457Z,8.90
2018-09-14T03:23:32.346Z,9.00
2018-09-14T03:24:32.235Z,8.30
2018-09-14T03:25:32.158Z,8.90
2018-09-14T03:26:32.012Z,8.70
2018-09-14T03:27:31.896Z,9.00
2018-09-14T03:28:31.781Z,8.60
2018-09-14T03:29:31.666Z,9.10
2018-09-14T03:30:31.585Z,8.70
2018-09-14T03:31:31.447Z,8.80
2018-09-14T03:32:31.346Z,8.80
2018-09-14T03:33:31.225Z,8.80
2018-09-14T03:34:31.110Z,8.30
2018-09-14T03:35:31.054Z,9.10
2018-09-14T03:36:30.913Z,8.80
2018-09-14T03:37:30.770Z,9.30
2018-09-14T03:38:30.662Z,8.90
2018-09-14T03:39:30.544Z,8.60
2018-09-14T03:40:30.434Z,8.60
2018-09-14T03:41:30.351Z,8.60
2018-09-14T03:42:30.212Z,9.10
2018-09-14T03:43:30.105Z,8.50
2018-09-14T03:44:29.993Z,8.70
2018-09-14T03:45:29.886Z,8.20
2018-09-14T03:46:29.801Z,8.90
2018-09-14T03:47:29.660Z,8.30
2018-09-14T03:48:29.547Z,8.50
2018-09-14T03:49:29.438Z,8.30
2018-09-14T03:50:29.317Z,8.30
2018-09-14T03:51:29.223Z,8.20
2018-09-14T03:52:29.080Z,8.10
2018-09-14T03:53:28.962Z,9.00
2018-09-14T03:54:28.851Z,9.20
2018-09-14T03:55:28.736Z,9.60
2018-09-14T03:56:28.649Z,9.30
2018-09-14T03:57:28.572Z,8.40
2018-09-14T03:58:28.398Z,8.50
2018-09-14T03:59:28.289Z,7.70
2018-09-14T04:00:28.178Z,8.70
2018-09-14T04:01:28.093Z,8.20
2018-09-14T04:02:27.959Z,8.00
2018-09-14T04:03:27.836Z,8.10
2018-09-14T04:04:27.723Z,8.00
2018-09-14T04:05:27.609Z,8.00
2018-09-14T04:06:27.519Z,8.70
2018-09-14T04:07:27.379Z,7.50
2018-09-14T04:08:27.267Z,8.00
2018-09-14T04:09:27.151Z,8.10
2018-09-14T04:10:27.035Z,7.60
2018-09-14T04:11:26.949Z,7.50
2018-09-14T04:12:26.811Z,8.00
2018-09-14T04:13:26.704Z,8.20
2018-09-14T04:14:26.582Z,7.50
2018-09-14T04:15:26.469Z,7.40
2018-09-14T04:16:26.384Z,7.40
2018-09-14T04:17:26.259Z,7.70
2018-09-14T04:18:26.137Z,7.50
2018-09-14T04:19:26.031Z,7.20
2018-09-14T04:20:25.917Z,7.50
2018-09-14T04:21:25.839Z,7.20
2018-09-14T04:22:25.701Z,7.30
2018-09-14T04:23:25.606Z,7.60
2018-09-14T04:24:25.485Z,7.80
2018-09-14T04:25:25.376Z,7.50
2018-09-14T04:26:25.294Z,8.30
2018-09-14T04:27:25.183Z,7.20
2018-09-14T04:28:25.059Z,7.20
2018-09-14T04:29:24.959Z,7.60
2018-09-14T04:30:24.860Z,7.00
2018-09-14T04:31:24.773Z,7.00
2018-09-14T04:32:24.637Z,7.20
2018-09-14T04:33:24.526Z,7.00
2018-09-14T04:34:24.420Z,7.20
2018-09-14T04:35:24.322Z,7.40
2018-09-14T04:36:24.252Z,7.70
2018-09-14T04:37:24.117Z,7.30
2018-09-14T04:38:24.058Z,8.00
2018-09-14T04:39:23.899Z,7.30
2018-09-14T04:40:23.787Z,7.40
2018-09-14T04:41:23.679Z,7.50
2018-09-14T04:42:23.597Z,7.50
2018-09-14T04:43:23.468Z,7.30
2018-09-14T04:44:23.353Z,7.70
2018-09-14T04:45:23.245Z,7.30
2018-09-14T04:46:23.143Z,7.00
2018-09-14T04:47:23.061Z,7.20
2018-09-14T04:48:23.015Z,7.20
2018-09-14T04:49:22.812Z,7.30
2018-09-14T04:50:22.702Z,7.50
2018-09-14T04:51:22.645Z,7.10
2018-09-14T04:52:22.509Z,7.60
2018-09-14T04:53:22.375Z,7.30
2018-09-14T04:54:22.265Z,7.20
2018-09-14T04:55:22.156Z,6.70
2018-09-14T04:56:22.051Z,7.10
2018-09-14T04:57:22.036Z,7.40
2018-09-14T04:58:21.834Z,7.80
2018-09-14T04:59:21.723Z,6.90
2018-09-14T05:00:21.630Z,7.20
2018-09-14T05:01:21.510Z,6.80
2018-09-14T05:02:21.437Z,7.10
2018-09-14T05:03:21.308Z,7.00
2018-09-14T05:04:21.179Z,7.00
2018-09-14T05:05:21.070Z,7.20
2018-09-14T05:06:20.959Z,6.80
2018-09-14T05:07:20.878Z,6.80
2018-09-14T05:08:20.748Z,7.20
2018-09-14T05:09:20.649Z,7.60
2018-09-14T05:10:20.532Z,6.90
2018-09-14T05:11:20.420Z,7.40
2018-09-14T05:12:20.331Z,7.40
2018-09-14T05:13:20.200Z,7.90
2018-09-14T05:14:20.162Z,7.40
2018-09-14T05:15:19.976Z,7.30
2018-09-14T05:16:19.863Z,7.10
2018-09-14T05:17:19.785Z,7.40
2018-09-14T05:18:19.646Z,6.50
2018-09-14T05:19:19.537Z,6.70
2018-09-14T05:20:19.429Z,6.80
2018-09-14T05:21:19.322Z,6.40
2018-09-14T05:22:19.234Z,6.70
2018-09-14T05:23:19.096Z,6.50
2018-09-14T05:24:18.975Z,6.90
2018-09-14T05:25:18.864Z,6.80
2018-09-14T05:26:18.751Z,6.40
2018-09-14T05:27:18.660Z,6.60
2018-09-14T05:28:18.523Z,6.50
2018-09-14T05:29:18.410Z,6.30
2018-09-14T05:30:18.299Z,6.60
2018-09-14T05:31:18.190Z,6.70
2018-09-14T05:32:18.108Z,6.40
